Furenas — OZ2085 — position and weather

sailwx.info

Track history (hours):
 
Tides and Currents Weather Stations Pressure Air Temp Water Temp Dewpoint Dewpoint Depression Visibility Wind Speed Wind Dir Waves Ship Positions

Furenas

Last reported at 2016-Feb-10 08:33 UTC. Time now 2016-Feb-10 08:49 UTC.
Position N 52°25' E 004°45'.

Length 137 m; draft 6.1 m.

Type: Tanker. MMSI: 231734000.

Date/timePositionNaut miles runAvg speedWind from/ knotsBaromVisibWave heightAir tempDewpointWater temp
2016-Feb-10 08:33N 52°25' E 004°45'0 0.0
2016-Feb-10 07:30N 52°25' E 004°45'0 0.0
2016-Feb-10 06:33N 52°25' E 004°45'0 0.0
2016-Feb-10 05:33N 52°25' E 004°45'0 0.0
2016-Feb-10 04:27N 52°25' E 004°45'0 0.0
2016-Feb-10 03:30N 52°25' E 004°45'0 0.0
2016-Feb-10 02:33N 52°25' E 004°45'0 0.0
2016-Feb-10 01:18N 52°25' E 004°45'0 0.4
2016-Feb-10 00:33N 52°25' E 004°45'6 5.8
2016-Feb-09 23:33N 52°28' E 004°37'3 2.6
2016-Feb-09 22:33N 52°28' E 004°32'8 7.7
2016-Feb-09 21:33N 52°28' E 004°20'5 4.5
2016-Feb-09 20:28N 52°32' E 004°14'0 0.0
2016-Feb-09 19:25N 52°32' E 004°14'0 0.0
2016-Feb-09 17:10N 52°32' E 004°14'0 0.0
2016-Feb-09 16:31N 52°32' E 004°14'0 0.0
2016-Feb-09 15:19N 52°32' E 004°14'0 0.0
2016-Feb-09 14:28N 52°32' E 004°14'0 0.1
2016-Feb-09 13:31N 52°32' E 004°14'0 0.1
2016-Feb-09 12:31N 52°32' E 004°14'0 0.1
2016-Feb-09 11:16N 52°32' E 004°14'0 0.3
2016-Feb-09 09:33N 52°32' E 004°14'6 5.4
2016-Feb-09 08:28N 52°36' E 004°06'9 2.2
2016-Feb-09 04:32N 52°35' E 003°52'7 7.0
2016-Feb-09 03:33N 52°31' E 003°43'7 6.8
2016-Feb-09 02:32N 52°29' E 003°32'21 0.9
2016-Feb-08 03:12N 52°36' E 004°05'3 4.9
2016-Feb-08 02:33N 52°33' E 004°09'3 2.9
2016-Feb-08 01:33N 52°31' E 004°12'3 2.8
2016-Feb-08 00:31N 52°32' E 004°17'0 0.0
2016-Feb-07 23:31N 52°32' E 004°17'0 0.0
2016-Feb-07 22:31N 52°32' E 004°17'0 0.0
2016-Feb-07 21:28N 52°32' E 004°17'0 0.0
2016-Feb-07 20:28N 52°32' E 004°17'0 0.0
2016-Feb-07 19:28N 52°32' E 004°17'0 0.0
2016-Feb-07 18:28N 52°32' E 004°17'0 0.0
2016-Feb-07 17:31N 52°32' E 004°17'0 0.0
2016-Feb-07 16:31N 52°32' E 004°17'0 0.1
2016-Feb-07 15:19N 52°32' E 004°17'0 0.0
2016-Feb-07 14:25N 52°32' E 004°17'0 0.0
2016-Feb-07 13:28N 52°32' E 004°17'0 0.0
2016-Feb-07 11:25N 52°32' E 004°17'0 0.0
2016-Feb-07 10:31N 52°32' E 004°17'0 0.0
2016-Feb-07 09:19N 52°32' E 004°17'0 0.0
2016-Feb-07 08:25N 52°32' E 004°17'0 0.0
2016-Feb-07 07:31N 52°31' E 004°17'0 0.0
2016-Feb-07 06:28N 52°32' E 004°17'0 0.0
2016-Feb-07 05:28N 52°32' E 004°17'0 0.0
2016-Feb-07 04:28N 52°32' E 004°17'0 0.0
2016-Feb-07 03:28N 52°32' E 004°17'0 0.0
2016-Feb-07 02:28N 52°32' E 004°17'0 0.0
2016-Feb-07 01:28N 52°32' E 004°17'0 0.0
2016-Feb-07 00:31N 52°32' E 004°17'0 0.0
2016-Feb-06 23:31N 52°32' E 004°17'0 0.0
2016-Feb-06 22:22N 52°32' E 004°17'0 0.0
2016-Feb-06 21:31N 52°32' E 004°17'0 0.0
2016-Feb-06 20:31N 52°32' E 004°17'0 0.0
2016-Feb-06 19:31N 52°32' E 004°17'0 0.0
2016-Feb-06 18:19N 52°32' E 004°17'0 0.0
2016-Feb-06 17:28N 52°32' E 004°17'0 0.0
2016-Feb-06 16:33N 52°32' E 004°17'0 0.0
2016-Feb-06 15:33N 52°32' E 004°17'0 0.0
2016-Feb-06 14:33N 52°32' E 004°17'0 0.0
2016-Feb-06 13:27N 52°32' E 004°17'0 0.0
2016-Feb-06 12:30N 52°32' E 004°17'0 0.0
2016-Feb-06 11:21N 52°32' E 004°17'0 0.0
2016-Feb-06 10:33N 52°32' E 004°17'0 0.0
2016-Feb-06 09:24N 52°32' E 004°17'0 0.0
2016-Feb-06 08:27N 52°32' E 004°17'0 0.0
2016-Feb-06 07:24N 52°32' E 004°17'0 0.0
2016-Feb-06 06:30N 52°32' E 004°17'0 0.0
2016-Feb-06 05:33N 52°32' E 004°17'0 0.0
2016-Feb-06 04:33N 52°32' E 004°17'0 0.0
2016-Feb-06 03:33N 52°32' E 004°17'0 0.0
2016-Feb-06 02:33N 52°32' E 004°17'0 0.0
2016-Feb-06 01:33N 52°32' E 004°17'0 0.0
2016-Feb-06 00:33N 52°32' E 004°17'0 0.0
2016-Feb-05 23:27N 52°32' E 004°17'0 0.0
2016-Feb-05 22:30N 52°32' E 004°17'0 0.0
2016-Feb-05 21:33N 52°32' E 004°17'0 0.0
2016-Feb-05 20:33N 52°32' E 004°17'0 0.0
2016-Feb-05 19:15N 52°32' E 004°17'0 0.0
2016-Feb-05 18:30N 52°32' E 004°17'0 0.0
2016-Feb-05 17:33N 52°31' E 004°17'0 0.0
2016-Feb-05 16:27N 52°32' E 004°17'0 0.0
2016-Feb-05 15:30N 52°32' E 004°17'0 0.0
2016-Feb-05 14:33N 52°31' E 004°17'0 0.0
2016-Feb-05 13:33N 52°31' E 004°17'0 0.0
2016-Feb-05 12:27N 52°31' E 004°17'0 0.0
2016-Feb-05 11:33N 52°31' E 004°17'0 0.0
2016-Feb-05 10:33N 52°31' E 004°17'0 0.0
2016-Feb-05 09:33N 52°31' E 004°17'0 0.0
2016-Feb-05 08:33N 52°31' E 004°17'0 0.0
2016-Feb-05 07:33N 52°31' E 004°17'0 0.0
2016-Feb-05 06:33N 52°31' E 004°17'0 0.0
2016-Feb-05 05:33N 52°31' E 004°17'0 0.0
2016-Feb-05 04:32N 52°31' E 004°17'0 0.0
2016-Feb-05 03:32N 52°31' E 004°17'0 0.0
2016-Feb-05 02:32N 52°31' E 004°17'0 0.0
2016-Feb-05 01:32N 52°31' E 004°17'0 0.0
2016-Feb-05 00:26N 52°31' E 004°17'0 0.0
2016-Feb-04 23:32N 52°31' E 004°17'0 0.0
2016-Feb-04 22:32N 52°31' E 004°17'0 0.0
2016-Feb-04 21:32N 52°31' E 004°17'0 0.1
2016-Feb-04 20:32N 52°31' E 004°17'3 3.5
2016-Feb-04 19:34N 52°29' E 004°13'1212.1
2016-Feb-04 18:32N 52°26' E 003°53'7011.7
2016-Feb-04 12:33N 51°39' E 002°28'1313.2
2016-Feb-04 11:33N 51°29' E 002°15'1312.8
2016-Feb-04 10:32N 51°17' E 002°06'1313.6
2016-Feb-04 09:33N 51°09' E 001°50'1515.1
2016-Feb-04 08:34N 50°59' E 001°31'252 5.2
2016-Feb-02 08:30N 53°30' W 003°59'8 9.0
2016-Feb-02 07:33N 53°33' W 003°47'9 8.8
2016-Feb-02 06:33N 53°33' W 003°32'9 9.0
2016-Feb-02 05:33N 53°32' W 003°17'10 9.5
2016-Feb-02 04:33N 53°27' W 003°02'9 8.7
2016-Feb-02 03:33N 53°19' W 002°57'1 0.6
2016-Feb-02 02:33N 53°19' W 002°56'3 3.0
2016-Feb-02 01:33N 53°17' W 002°52'0 0.1
2016-Feb-02 00:29N 53°17' W 002°52'0 0.0
2016-Feb-01 23:32N 53°17' W 002°52'0 0.0
2016-Feb-01 22:20N 53°17' W 002°52'0 0.0
2016-Feb-01 21:32N 53°17' W 002°52'0 0.0
2016-Feb-01 20:29N 53°17' W 002°52'0 0.0
2016-Feb-01 19:31N 53°17' W 002°52'0 0.0
2016-Feb-01 18:31N 53°17' W 002°52'0 0.0
2016-Feb-01 17:31N 53°17' W 002°52'0 0.0
2016-Feb-01 16:31N 53°17' W 002°52'0 0.0
2016-Feb-01 15:31N 53°17' W 002°52'0 0.0
2016-Feb-01 14:31N 53°17' W 002°52'0 0.0
2016-Feb-01 13:25N 53°17' W 002°52'0 0.0
2016-Feb-01 12:31N 53°17' W 002°52'0 0.0
2016-Feb-01 11:31N 53°17' W 002°52'0 0.0
2016-Feb-01 10:28N 53°17' W 002°52'0 0.0
2016-Feb-01 09:31N 53°17' W 002°52'0 0.0
2016-Feb-01 08:31N 53°17' W 002°52'0 0.0
2016-Feb-01 07:28N 53°17' W 002°52'0 0.0
2016-Feb-01 06:31N 53°17' W 002°52'0 0.0
2016-Feb-01 05:31N 53°17' W 002°52'0 0.0
2016-Feb-01 04:31N 53°17' W 002°52'0 0.0
2016-Feb-01 03:28N 53°17' W 002°52'0 0.0
2016-Feb-01 02:31N 53°17' W 002°52'0 0.0
2016-Feb-01 01:31N 53°17' W 002°52'0 0.0
2016-Feb-01 00:31N 53°17' W 002°52'0 0.0
2016-Jan-31 23:31N 53°17' W 002°52'0 0.0
2016-Jan-31 22:31N 53°17' W 002°52'0 0.0
2016-Jan-31 21:31N 53°17' W 002°52'0 0.0
2016-Jan-31 20:28N 53°17' W 002°52'0 0.0
2016-Jan-31 19:31N 53°17' W 002°52'0 0.0
2016-Jan-31 18:25N 53°17' W 002°52'0 0.0
2016-Jan-31 17:33N 53°17' W 002°52'3 3.3
2016-Jan-31 16:33N 53°19' W 002°56'2 1.6
2016-Jan-31 15:33N 53°20' W 002°58'9 8.8
2016-Jan-31 14:33N 53°28' W 003°04'10 9.7
2016-Jan-31 13:33N 53°31' W 003°20'8 8.1
2016-Jan-31 12:33N 53°31' W 003°33'1010.4
2016-Jan-31 11:33N 53°30' W 003°50'  
Track history (hours):
 
Tides and Currents Weather Stations Pressure Air Temp Water Temp Dewpoint Dewpoint Depression Visibility Wind Speed Wind Dir Waves Ship Positions

Furenas

Last reported at 2016-Feb-10 08:33 UTC. Time now 2016-Feb-10 08:49 UTC.
Position N 52°25' E 004°45'.

Length 137 m; draft 6.1 m.

Type: Tanker. MMSI: 231734000.

Date/timePositionNaut miles runAvg speedWind from/ knotsBaromVisibWave heightAir tempDewpointWater temp
2016-Feb-10 08:33N 52°25' E 004°45'0 0.0
2016-Feb-10 07:30N 52°25' E 004°45'0 0.0
2016-Feb-10 06:33N 52°25' E 004°45'0 0.0
2016-Feb-10 05:33N 52°25' E 004°45'0 0.0
2016-Feb-10 04:27N 52°25' E 004°45'0 0.0
2016-Feb-10 03:30N 52°25' E 004°45'0 0.0
2016-Feb-10 02:33N 52°25' E 004°45'0 0.0
2016-Feb-10 01:18N 52°25' E 004°45'0 0.4
2016-Feb-10 00:33N 52°25' E 004°45'6 5.8
2016-Feb-09 23:33N 52°28' E 004°37'3 2.6
2016-Feb-09 22:33N 52°28' E 004°32'8 7.7
2016-Feb-09 21:33N 52°28' E 004°20'5 4.5
2016-Feb-09 20:28N 52°32' E 004°14'0 0.0
2016-Feb-09 19:25N 52°32' E 004°14'0 0.0
2016-Feb-09 17:10N 52°32' E 004°14'0 0.0
2016-Feb-09 16:31N 52°32' E 004°14'0 0.0
2016-Feb-09 15:19N 52°32' E 004°14'0 0.0
2016-Feb-09 14:28N 52°32' E 004°14'0 0.1
2016-Feb-09 13:31N 52°32' E 004°14'0 0.1
2016-Feb-09 12:31N 52°32' E 004°14'0 0.1
2016-Feb-09 11:16N 52°32' E 004°14'0 0.3
2016-Feb-09 09:33N 52°32' E 004°14'6 5.4
2016-Feb-09 08:28N 52°36' E 004°06'9 2.2
2016-Feb-09 04:32N 52°35' E 003°52'7 7.0
2016-Feb-09 03:33N 52°31' E 003°43'7 6.8
2016-Feb-09 02:32N 52°29' E 003°32'21 0.9
2016-Feb-08 03:12N 52°36' E 004°05'3 4.9
2016-Feb-08 02:33N 52°33' E 004°09'3 2.9
2016-Feb-08 01:33N 52°31' E 004°12'3 2.8
2016-Feb-08 00:31N 52°32' E 004°17'0 0.0
2016-Feb-07 23:31N 52°32' E 004°17'0 0.0
2016-Feb-07 22:31N 52°32' E 004°17'0 0.0
2016-Feb-07 21:28N 52°32' E 004°17'0 0.0
2016-Feb-07 20:28N 52°32' E 004°17'0 0.0
2016-Feb-07 19:28N 52°32' E 004°17'0 0.0
2016-Feb-07 18:28N 52°32' E 004°17'0 0.0
2016-Feb-07 17:31N 52°32' E 004°17'0 0.0
2016-Feb-07 16:31N 52°32' E 004°17'0 0.1
2016-Feb-07 15:19N 52°32' E 004°17'0 0.0
2016-Feb-07 14:25N 52°32' E 004°17'0 0.0
2016-Feb-07 13:28N 52°32' E 004°17'0 0.0
2016-Feb-07 11:25N 52°32' E 004°17'0 0.0
2016-Feb-07 10:31N 52°32' E 004°17'0 0.0
2016-Feb-07 09:19N 52°32' E 004°17'0 0.0
2016-Feb-07 08:25N 52°32' E 004°17'0 0.0
2016-Feb-07 07:31N 52°31' E 004°17'0 0.0
2016-Feb-07 06:28N 52°32' E 004°17'0 0.0
2016-Feb-07 05:28N 52°32' E 004°17'0 0.0
2016-Feb-07 04:28N 52°32' E 004°17'0 0.0
2016-Feb-07 03:28N 52°32' E 004°17'0 0.0
2016-Feb-07 02:28N 52°32' E 004°17'0 0.0
2016-Feb-07 01:28N 52°32' E 004°17'0 0.0
2016-Feb-07 00:31N 52°32' E 004°17'0 0.0
2016-Feb-06 23:31N 52°32' E 004°17'0 0.0
2016-Feb-06 22:22N 52°32' E 004°17'0 0.0
2016-Feb-06 21:31N 52°32' E 004°17'0 0.0
2016-Feb-06 20:31N 52°32' E 004°17'0 0.0
2016-Feb-06 19:31N 52°32' E 004°17'0 0.0
2016-Feb-06 18:19N 52°32' E 004°17'0 0.0
2016-Feb-06 17:28N 52°32' E 004°17'0 0.0
2016-Feb-06 16:33N 52°32' E 004°17'0 0.0
2016-Feb-06 15:33N 52°32' E 004°17'0 0.0
2016-Feb-06 14:33N 52°32' E 004°17'0 0.0
2016-Feb-06 13:27N 52°32' E 004°17'0 0.0
2016-Feb-06 12:30N 52°32' E 004°17'0 0.0
2016-Feb-06 11:21N 52°32' E 004°17'0 0.0
2016-Feb-06 10:33N 52°32' E 004°17'0 0.0
2016-Feb-06 09:24N 52°32' E 004°17'0 0.0
2016-Feb-06 08:27N 52°32' E 004°17'0 0.0
2016-Feb-06 07:24N 52°32' E 004°17'0 0.0
2016-Feb-06 06:30N 52°32' E 004°17'0 0.0
2016-Feb-06 05:33N 52°32' E 004°17'0 0.0
2016-Feb-06 04:33N 52°32' E 004°17'0 0.0
2016-Feb-06 03:33N 52°32' E 004°17'0 0.0
2016-Feb-06 02:33N 52°32' E 004°17'0 0.0
2016-Feb-06 01:33N 52°32' E 004°17'0 0.0
2016-Feb-06 00:33N 52°32' E 004°17'0 0.0
2016-Feb-05 23:27N 52°32' E 004°17'0 0.0
2016-Feb-05 22:30N 52°32' E 004°17'0 0.0
2016-Feb-05 21:33N 52°32' E 004°17'0 0.0
2016-Feb-05 20:33N 52°32' E 004°17'0 0.0
2016-Feb-05 19:15N 52°32' E 004°17'0 0.0
2016-Feb-05 18:30N 52°32' E 004°17'0 0.0
2016-Feb-05 17:33N 52°31' E 004°17'0 0.0
2016-Feb-05 16:27N 52°32' E 004°17'0 0.0
2016-Feb-05 15:30N 52°32' E 004°17'0 0.0
2016-Feb-05 14:33N 52°31' E 004°17'0 0.0
2016-Feb-05 13:33N 52°31' E 004°17'0 0.0
2016-Feb-05 12:27N 52°31' E 004°17'0 0.0
2016-Feb-05 11:33N 52°31' E 004°17'0 0.0
2016-Feb-05 10:33N 52°31' E 004°17'0 0.0
2016-Feb-05 09:33N 52°31' E 004°17'0 0.0
2016-Feb-05 08:33N 52°31' E 004°17'0 0.0
2016-Feb-05 07:33N 52°31' E 004°17'0 0.0
2016-Feb-05 06:33N 52°31' E 004°17'0 0.0
2016-Feb-05 05:33N 52°31' E 004°17'0 0.0
2016-Feb-05 04:32N 52°31' E 004°17'0 0.0
2016-Feb-05 03:32N 52°31' E 004°17'0 0.0
2016-Feb-05 02:32N 52°31' E 004°17'0 0.0
2016-Feb-05 01:32N 52°31' E 004°17'0 0.0
2016-Feb-05 00:26N 52°31' E 004°17'0 0.0
2016-Feb-04 23:32N 52°31' E 004°17'0 0.0
2016-Feb-04 22:32N 52°31' E 004°17'0 0.0
2016-Feb-04 21:32N 52°31' E 004°17'0 0.1
2016-Feb-04 20:32N 52°31' E 004°17'3 3.5
2016-Feb-04 19:34N 52°29' E 004°13'1212.1
2016-Feb-04 18:32N 52°26' E 003°53'7011.7
2016-Feb-04 12:33N 51°39' E 002°28'1313.2
2016-Feb-04 11:33N 51°29' E 002°15'1312.8
2016-Feb-04 10:32N 51°17' E 002°06'1313.6
2016-Feb-04 09:33N 51°09' E 001°50'1515.1
2016-Feb-04 08:34N 50°59' E 001°31'252 5.2
2016-Feb-02 08:30N 53°30' W 003°59'8 9.0
2016-Feb-02 07:33N 53°33' W 003°47'9 8.8
2016-Feb-02 06:33N 53°33' W 003°32'9 9.0
2016-Feb-02 05:33N 53°32' W 003°17'10 9.5
2016-Feb-02 04:33N 53°27' W 003°02'9 8.7
2016-Feb-02 03:33N 53°19' W 002°57'1 0.6
2016-Feb-02 02:33N 53°19' W 002°56'3 3.0
2016-Feb-02 01:33N 53°17' W 002°52'0 0.1
2016-Feb-02 00:29N 53°17' W 002°52'0 0.0
2016-Feb-01 23:32N 53°17' W 002°52'0 0.0
2016-Feb-01 22:20N 53°17' W 002°52'0 0.0
2016-Feb-01 21:32N 53°17' W 002°52'0 0.0
2016-Feb-01 20:29N 53°17' W 002°52'0 0.0
2016-Feb-01 19:31N 53°17' W 002°52'0 0.0
2016-Feb-01 18:31N 53°17' W 002°52'0 0.0
2016-Feb-01 17:31N 53°17' W 002°52'0 0.0
2016-Feb-01 16:31N 53°17' W 002°52'0 0.0
2016-Feb-01 15:31N 53°17' W 002°52'0 0.0
2016-Feb-01 14:31N 53°17' W 002°52'0 0.0
2016-Feb-01 13:25N 53°17' W 002°52'0 0.0
2016-Feb-01 12:31N 53°17' W 002°52'0 0.0
2016-Feb-01 11:31N 53°17' W 002°52'0 0.0
2016-Feb-01 10:28N 53°17' W 002°52'0 0.0
2016-Feb-01 09:31N 53°17' W 002°52'0 0.0
2016-Feb-01 08:31N 53°17' W 002°52'0 0.0
2016-Feb-01 07:28N 53°17' W 002°52'0 0.0
2016-Feb-01 06:31N 53°17' W 002°52'0 0.0
2016-Feb-01 05:31N 53°17' W 002°52'0 0.0
2016-Feb-01 04:31N 53°17' W 002°52'0 0.0
2016-Feb-01 03:28N 53°17' W 002°52'0 0.0
2016-Feb-01 02:31N 53°17' W 002°52'0 0.0
2016-Feb-01 01:31N 53°17' W 002°52'0 0.0
2016-Feb-01 00:31N 53°17' W 002°52'0 0.0
2016-Jan-31 23:31N 53°17' W 002°52'0 0.0
2016-Jan-31 22:31N 53°17' W 002°52'0 0.0
2016-Jan-31 21:31N 53°17' W 002°52'0 0.0
2016-Jan-31 20:28N 53°17' W 002°52'0 0.0
2016-Jan-31 19:31N 53°17' W 002°52'0 0.0
2016-Jan-31 18:25N 53°17' W 002°52'0 0.0
2016-Jan-31 17:33N 53°17' W 002°52'3 3.3
2016-Jan-31 16:33N 53°19' W 002°56'2 1.6
2016-Jan-31 15:33N 53°20' W 002°58'9 8.8
2016-Jan-31 14:33N 53°28' W 003°04'10 9.7
2016-Jan-31 13:33N 53°31' W 003°20'8 8.1
2016-Jan-31 12:33N 53°31' W 003°33'1010.4
2016-Jan-31 11:33N 53°30' W 003°50'  

Dump ship's entire track history